Puerto Vallarta, Mexico

4:48 AM CDT on August 25, 2016 (GMT -0500)
Lic Gustavo Diaz Ordaz International | | Change Station

Elev 20 ft 20.68 °N, 105.25 °W | Updated 1 hour ago

Overcast
Overcast
79 °F
Feels Like 79 °F
N
0
Wind Variable Wind from North

Today
High -- | Low -- °F
--% Chance of Precip.
Yesterday
High -- | Low -- °F
Precip. -- in
Pressure 29.91 in
Visibility 10.0 miles
Clouds Overcast 8000 ft
Dew Point 77 °F
Humidity 94%
Rainfall 0.00 in
Snow Depth Not available.
7:43 AM 8:22 PM
Waning Gibbous, 47% visible
METAR MMPR 250848Z 00000KT 10SM OVC080 26/25 A2991 RMK SLP126 57023 974 8/07/
Pressure 29.91 in
Visibility 10.0 miles
Clouds Overcast 8000 ft
Dew Point 77 °F
Humidity 94%
Rainfall 0.00 in
Snow Depth Not available.
7:43 AM 8:22 PM
Waning Gibbous, 47% visible
METAR MMPR 250848Z 00000KT 10SM OVC080 26/25 A2991 RMK SLP126 57023 974 8/07/

10-Day Weather Forecast

No radar image for this location.
×

Almanac

Astronomy

Aug. 25, 2016 Rise Set
Actual Time
Civil Twilight
Nautical Twilight
Astronomical Twilight
Moon
Length of Visible Light
Length of Day
Tomorrow will be .
, % of the Moon is Illuminated

Today's Extremes

Country Highs Country Lows

Community

WunderPhotos

Upload Photos

1,934,818 photos uploaded!

WunderBlog® & News

Nearby

Air Quality

  Air Quality AQ Index Pollutant
Not available.

Snow Depth

Station Depth Elevation

Earthquake Activity

City Distance Mag. Time & Date
Minimum magnitude displayed is 2.5.

Coastal Water Temperatures

Place Temperature

Stations

Nearby Weather Stations

Station Location Temp. Windchill Dew Point Humidity Wind Precip. Elev Updated Type